Time;durP1;ratioP1;P1;durP2;ratioP2;P2;SDS_P1;SDS_P2;PMS_P1;PMS_P2;Temp;Humidity;BMP_temperature;BMP_pressure;BME280_temperature;BME280_humidity;BME280_pressure;Samples;Min_cycle;Max_cycle;Signal;HPM_P1;HPM_P2
2022/07/25 00:04:33;;;;;;;7.65;4.53;;;;;;;22.00;51.72;100976.91;10218138;29;20035;-69
2022/07/25 00:09:34;;;;;;;4.45;4.05;;;;;;;21.92;52.04;100963.69;10217955;29;20451;-68
2022/07/25 00:14:34;;;;;;;5.28;4.03;;;;;;;21.91;52.13;100967.50;10200174;29;20044;-69
2022/07/25 00:19:34;;;;;;;5.25;4.25;;;;;;;21.85;52.66;100957.56;10216582;29;20043;-68
2022/07/25 00:24:35;;;;;;;5.80;3.67;;;;;;;21.87;52.94;100960.88;10216799;29;20043;-68
2022/07/25 00:29:35;;;;;;;8.65;4.95;;;;;;;21.84;52.76;100961.44;10184417;29;20068;-69
2022/07/25 00:34:36;;;;;;;3.35;3.13;;;;;;;21.73;52.99;100946.81;10216957;29;20036;-69
2022/07/25 00:39:36;;;;;;;8.10;4.07;;;;;;;21.69;53.76;100939.31;10199889;29;20050;-69
2022/07/25 00:44:37;;;;;;;4.25;3.72;;;;;;;21.60;53.94;100930.75;10200521;29;20051;-69
2022/07/25 00:49:37;;;;;;;4.88;3.60;;;;;;;21.67;53.88;100919.50;10199326;29;20035;-68
2022/07/25 00:54:37;;;;;;;9.23;3.83;;;;;;;21.67;55.03;100912.06;10200431;29;20040;-68
2022/07/25 00:59:38;;;;;;;7.60;3.90;;;;;;;21.63;55.80;100899.06;10199171;29;20054;-68
2022/07/25 01:04:39;;;;;;;4.32;3.92;;;;;;;21.61;56.05;100906.81;10215420;29;20047;-69
2022/07/25 01:09:39;;;;;;;4.88;3.83;;;;;;;21.58;55.73;100902.66;10215692;29;20118;-68
2022/07/25 01:14:39;;;;;;;9.38;4.97;;;;;;;21.58;55.27;100903.47;10199735;29;20384;-69
2022/07/25 01:19:40;;;;;;;4.45;3.85;;;;;;;21.55;55.72;100895.75;10215771;29;20039;-68
2022/07/25 01:24:40;;;;;;;7.68;4.05;;;;;;;21.49;56.20;100882.22;10198422;29;20032;-73
2022/07/25 01:29:41;;;;;;;4.82;4.47;;;;;;;21.36;56.40;100873.38;10197912;29;20042;-74
2022/07/25 01:34:41;;;;;;;5.80;3.78;;;;;;;21.30;57.33;100859.81;10198511;29;20031;-73
2022/07/25 01:39:42;;;;;;;5.07;3.90;;;;;;;21.33;57.61;100859.28;10197347;29;20036;-73
2022/07/25 01:44:42;;;;;;;4.53;4.15;;;;;;;21.31;58.22;100853.22;10183719;29;20455;-73
2022/07/25 01:49:43;;;;;;;7.07;3.88;;;;;;;21.31;57.83;100854.06;10183328;29;20071;-73
2022/07/25 01:54:43;;;;;;;4.28;3.88;;;;;;;21.30;57.50;100846.06;10199191;29;20478;-73
2022/07/25 01:59:44;;;;;;;8.15;5.45;;;;;;;21.34;57.41;100838.88;10182097;29;20518;-73
2022/07/25 02:04:44;;;;;;;5.53;3.70;;;;;;;21.41;57.56;100827.66;10197327;29;20035;-73
2022/07/25 02:09:45;;;;;;;7.50;4.35;;;;;;;21.40;57.31;100832.34;10214712;29;20523;-74
2022/07/25 02:14:45;;;;;;;8.30;3.92;;;;;;;21.40;57.14;100829.56;10183904;29;20036;-73
2022/07/25 02:19:46;;;;;;;6.45;5.07;;;;;;;21.43;57.04;100825.47;10197083;29;20035;-73
2022/07/25 02:24:46;;;;;;;9.02;5.65;;;;;;;21.46;57.15;100824.91;10196856;29;20068;-74
2022/07/25 02:29:46;;;;;;;3.53;3.22;;;;;;;21.46;57.01;100822.97;10181494;29;20031;-74
2022/07/25 02:34:47;;;;;;;5.03;3.50;;;;;;;21.44;56.87;100816.94;10197877;29;20486;-73
2022/07/25 02:39:47;;;;;;;4.70;3.58;;;;;;;21.39;57.19;100816.91;10198263;29;20062;-73
2022/07/25 02:44:48;;;;;;;4.78;4.10;;;;;;;21.36;57.08;100809.19;10204352;29;20502;-73
2022/07/25 02:49:48;;;;;;;4.32;3.65;;;;;;;21.32;57.17;100816.31;10203863;29;20032;-73
2022/07/25 02:54:49;;;;;;;7.00;3.63;;;;;;;21.30;57.32;100811.06;10221329;29;20122;-73
2022/07/25 02:59:50;;;;;;;4.90;4.20;;;;;;;21.34;57.60;100819.63;10204032;29;20337;-73
2022/07/25 03:04:50;;;;;;;5.45;3.00;;;;;;;21.42;57.97;100816.38;10204521;29;20059;-74
2022/07/25 03:09:50;;;;;;;3.28;3.00;;;;;;;21.54;57.88;100814.19;10203209;29;20039;-74
2022/07/25 03:14:51;;;;;;;3.83;3.50;;;;;;;21.63;57.53;100805.38;10220642;29;20119;-74
2022/07/25 03:19:51;;;;;;;4.20;3.45;;;;;;;21.70;57.29;100806.78;10203284;29;20095;-74
2022/07/25 03:24:52;;;;;;;10.40;3.45;;;;;;;21.72;57.49;100807.31;10202708;29;20095;-73
2022/07/25 03:29:53;;;;;;;5.45;4.40;;;;;;;21.75;57.76;100801.25;10203624;29;20045;-73
2022/07/25 03:34:53;;;;;;;5.88;4.15;;;;;;;21.75;57.76;100792.97;10219911;29;20085;-74
2022/07/25 03:39:54;;;;;;;5.75;4.13;;;;;;;21.74;58.36;100812.56;10203343;29;20148;-73
2022/07/25 03:44:54;;;;;;;5.45;2.97;;;;;;;21.72;58.06;100807.31;10219352;29;20051;-73
2022/07/25 03:49:55;;;;;;;4.82;4.18;;;;;;;21.68;58.42;100802.63;10201832;29;20102;-73
2022/07/25 03:54:55;;;;;;;4.00;3.60;;;;;;;21.61;59.36;100807.59;10218226;29;20067;-73
2022/07/25 03:59:56;;;;;;;4.05;3.65;;;;;;;21.52;60.04;100788.84;10218345;29;20416;-73
2022/07/25 04:04:56;;;;;;;14.65;3.92;;;;;;;21.49;60.33;100794.88;10218202;29;20166;-73
2022/07/25 04:09:57;;;;;;;4.45;3.33;;;;;;;21.45;60.10;100793.78;10185968;29;20076;-74
2022/07/25 04:14:58;;;;;;;3.80;3.20;;;;;;;21.39;61.30;100800.38;10208128;29;20039;-73
2022/07/25 04:20:00;;;;;;;5.50;2.88;;;;;;;21.29;62.22;100781.06;10170577;29;20045;-74
2022/07/25 04:25:02;;;;;;;4.00;3.70;;;;;;;21.18;62.05;100791.19;10185742;29;20480;-73
2022/07/25 04:30:04;;;;;;;10.80;4.07;;;;;;;21.12;61.96;100784.88;10185004;29;20103;-74
2022/07/25 04:35:07;;;;;;;3.53;3.25;;;;;;;21.19;62.04;100779.09;10215041;29;20095;-79
2022/07/25 04:40:10;;;;;;;4.55;3.25;;;;;;;21.32;62.28;100763.97;10184435;29;20484;-75
2022/07/25 04:45:12;;;;;;;5.80;4.10;;;;;;;21.45;62.45;100777.25;10202775;29;20056;-76
2022/07/25 04:50:14;;;;;;;4.00;2.85;;;;;;;21.55;63.58;100776.44;10200182;29;20036;-75
2022/07/25 04:55:14;;;;;;;3.25;3.05;;;;;;;21.68;63.64;100772.31;10183706;29;20031;-78
2022/07/25 05:00:15;;;;;;;3.03;2.80;;;;;;;21.78;63.43;100780.59;10169520;29;20032;-73
2022/07/25 05:05:29;;;;;;;2.72;2.53;;;;;;;21.81;64.98;100782.78;10198993;29;20039;-76
2022/07/25 05:10:30;;;;;;;8.98;3.05;;;;;;;21.84;64.25;100773.97;10216611;29;20103;-75
2022/07/25 05:15:32;;;;;;;3.55;2.78;;;;;;;21.94;65.00;100781.41;10186950;29;20039;-74
2022/07/25 05:20:33;;;;;;;2.58;2.15;;;;;;;22.15;66.44;100790.50;10183557;29;20093;-74
2022/07/25 05:25:34;;;;;;;7.63;2.38;;;;;;;22.31;66.58;100783.06;10198554;29;20038;-73
2022/07/25 05:30:35;;;;;;;2.10;1.95;;;;;;;22.40;66.32;100793.25;10183527;29;20035;-74
2022/07/25 05:35:36;;;;;;;6.68;2.03;;;;;;;22.59;66.44;100787.13;10198244;29;20031;-75
2022/07/25 05:40:36;;;;;;;3.45;2.55;;;;;;;23.32;67.22;100797.59;10167179;29;20040;-74
2022/07/25 05:45:37;;;;;;;2.28;1.60;;;;;;;23.12;67.03;100804.91;10197288;29;20400;-74
2022/07/25 05:50:45;;;;;;;2.35;2.13;;;;;;;22.93;67.69;100801.94;10211982;29;20047;-74
2022/07/25 05:55:45;;;;;;;11.60;3.72;;;;;;;22.90;67.10;100799.72;10197942;29;20039;-74
2022/07/25 06:00:52;;;;;;;5.65;2.40;;;;;;;22.85;71.30;100805.28;10182160;29;20039;-74
2022/07/25 06:05:54;;;;;;;4.75;2.55;;;;;;;22.57;71.65;100794.88;10182277;29;20027;-74
2022/07/25 06:10:54;;;;;;;5.55;2.50;;;;;;;22.15;72.78;100796.03;10181908;29;20027;-74
2022/07/25 06:15:55;;;;;;;6.05;2.97;;;;;;;21.86;73.32;100799.34;10219062;29;20114;-73
2022/07/25 06:20:56;;;;;;;6.63;3.60;;;;;;;21.71;74.43;100793.81;10190378;29;20131;-75
2022/07/25 06:25:59;;;;;;;14.65;4.07;;;;;;;21.66;74.20;100793.81;10190442;29;20390;-74
2022/07/25 06:31:02;;;;;;;6.78;1.92;;;;;;;21.67;75.64;100790.78;10204962;29;20036;-74
2022/07/25 06:36:13;;;;;;;8.68;1.98;;;;;;;21.75;77.27;100795.75;10218785;29;20048;-74
2022/07/25 06:41:14;;;;;;;6.32;3.10;;;;;;;21.96;77.06;100802.09;10223188;29;20120;-74
2022/07/25 06:46:15;;;;;;;3.85;2.42;;;;;;;22.15;78.03;100794.09;10221457;29;20134;-74
2022/07/25 06:51:16;;;;;;;2.03;1.92;;;;;;;22.33;76.73;100800.16;10189881;29;20138;-74
2022/07/25 06:56:17;;;;;;;5.93;2.75;;;;;;;22.51;75.80;100805.09;10204564;29;20081;-74
2022/07/25 07:01:19;;;;;;;3.95;1.83;;;;;;;22.18;81.67;100806.53;10189113;29;20036;-74
2022/07/25 07:06:19;;;;;;;3.67;2.50;;;;;;;21.87;82.09;100814.78;10203469;29;20039;-74
2022/07/25 07:11:20;;;;;;;4.25;2.15;;;;;;;21.90;79.67;100822.50;10188193;29;20119;-75
2022/07/25 07:16:40;;;;;;;3.15;2.83;;;;;;;22.00;82.89;100816.97;10204734;29;20102;-74
2022/07/25 07:21:41;;;;;;;6.07;2.88;;;;;;;22.37;79.97;100815.06;10201838;29;20047;-74
2022/07/25 07:26:41;;;;;;;4.28;2.90;;;;;;;23.26;81.38;100820.84;10187450;29;20042;-74
2022/07/25 07:31:54;;;;;;;4.07;2.83;;;;;;;24.03;77.59;100824.78;10189501;29;20039;-75
2022/07/25 07:36:55;;;;;;;2.85;1.70;;;;;;;23.97;75.01;100816.81;10207009;29;20126;-74
2022/07/25 07:42:03;;;;;;;6.13;2.78;;;;;;;25.66;70.14;100812.97;10203380;29;20535;-75
2022/07/25 07:47:04;;;;;;;9.45;2.65;;;;;;;27.33;64.82;100802.63;10204572;29;20125;-75
2022/07/25 07:52:05;;;;;;;12.25;3.22;;;;;;;28.44;61.18;100805.78;10186645;29;20439;-74
2022/07/25 07:57:06;;;;;;;5.43;3.42;;;;;;;27.68;60.08;100802.94;10202961;29;20464;-75
2022/07/25 08:02:06;;;;;;;2.65;2.45;;;;;;;26.26;62.80;100802.00;10186075;29;20110;-74
2022/07/25 08:07:07;;;;;;;4.85;3.10;;;;;;;26.64;63.20;100797.13;10218139;29;20039;-74
2022/07/25 08:12:07;;;;;;;6.35;2.55;;;;;;;28.52;59.22;100798.59;10187732;29;20035;-75
2022/07/25 08:17:08;;;;;;;3.88;2.50;;;;;;;29.28;54.69;100794.75;10218520;29;20044;-75
2022/07/25 08:22:08;;;;;;;2.00;1.70;;;;;;;28.50;54.77;100806.47;10202447;29;20035;-75
2022/07/25 08:27:09;;;;;;;7.22;2.17;;;;;;;29.02;52.84;100811.44;10219204;29;20061;-75
2022/07/25 08:32:11;;;;;;;5.03;2.10;;;;;;;30.11;51.88;100816.91;10218362;29;20031;-75
2022/07/25 08:37:11;;;;;;;2.47;2.28;;;;;;;28.85;50.47;100831.69;10218237;29;20110;-75
2022/07/25 08:42:12;;;;;;;6.05;2.67;;;;;;;26.71;55.84;100821.72;10202000;29;20044;-75
2022/07/25 08:47:14;;;;;;;5.13;2.65;;;;;;;25.69;60.55;100820.69;10218524;29;20051;-75
2022/07/25 08:52:15;;;;;;;15.95;2.88;;;;;;;24.99;63.14;100824.94;10173071;29;20039;-75
2022/07/25 08:57:24;;;;;;;5.55;2.53;;;;;;;24.86;63.11;100831.19;10185407;29;20038;-75
2022/07/25 09:02:31;;;;;;;5.03;2.58;;;;;;;25.03;63.46;100830.69;10535245;27;1432638;-77
2022/07/25 09:07:36;;;;;;;6.50;3.25;;;;;;;24.74;63.95;100823.28;10535102;28;20041;-76
2022/07/25 09:12:37;;;;;;;3.20;2.88;;;;;;;24.48;65.02;100838.53;10533771;28;20471;-77
2022/07/25 09:17:38;;;;;;;6.70;3.13;;;;;;;24.09;65.60;100850.44;10534239;28;20037;-77
2022/07/25 09:22:43;;;;;;;4.95;3.03;;;;;;;24.16;65.51;100866.75;10533818;28;20036;-76
2022/07/25 09:27:44;;;;;;;5.22;2.83;;;;;;;24.62;66.10;100858.84;10515279;28;20036;-76
2022/07/25 09:32:44;;;;;;;10.25;2.97;;;;;;;27.73;56.63;100857.66;10515113;28;20109;-77
2022/07/25 09:37:45;;;;;;;4.78;3.08;;;;;;;29.32;49.16;100863.50;10531388;28;20107;-76
2022/07/25 09:42:49;;;;;;;4.22;2.20;;;;;;;29.39;47.42;100849.91;10532628;28;20036;-77
2022/07/25 09:47:53;;;;;;;4.57;3.25;;;;;;;30.00;45.83;100855.53;10530687;28;20521;-77
2022/07/25 09:52:56;;;;;;;8.00;3.20;;;;;;;29.08;47.37;100850.00;10532012;28;20044;-76
2022/07/25 09:58:02;;;;;;;8.32;2.58;;;;;;;28.90;48.23;100882.53;10530995;28;20467;-77
2022/07/25 10:03:10;;;;;;;11.00;2.70;;;;;;;27.47;50.83;100880.50;10531671;28;20032;-77
2022/07/25 10:08:10;;;;;;;3.20;2.85;;;;;;;26.08;53.82;100877.78;10530091;28;20387;-76
2022/07/25 10:13:14;;;;;;;3.67;2.58;;;;;;;26.38;53.52;100890.31;10489129;28;20039;-76
2022/07/25 10:18:19;;;;;;;8.40;4.70;;;;;;;26.44;53.69;100892.72;10501429;28;20024;-77
2022/07/25 10:23:24;;;;;;;11.93;3.58;;;;;;;26.19;54.95;100902.28;10488001;28;20032;-77
2022/07/25 10:28:34;;;;;;;10.67;3.90;;;;;;;25.70;55.44;100906.34;10503123;28;20028;-77
2022/07/25 10:33:40;;;;;;;4.20;3.15;;;;;;;25.80;55.15;100902.59;10485003;28;20051;-77
2022/07/25 10:38:44;;;;;;;14.50;3.80;;;;;;;26.16;55.35;100911.25;10502745;28;20029;-76
2022/07/25 10:43:47;;;;;;;10.57;3.58;;;;;;;25.87;54.83;100921.66;10500750;28;20111;-76
2022/07/25 10:49:14;;;;;;;5.53;2.63;;;;;;;26.11;55.05;100916.03;10501008;28;20052;-76
2022/07/25 10:54:15;;;;;;;13.38;3.50;;;;;;;25.74;56.49;100923.22;10502019;28;20067;-76
2022/07/25 10:59:31;;;;;;;6.78;3.08;;;;;;;25.06;58.23;100930.69;10500413;28;20049;-76
2022/07/25 11:04:31;;;;;;;9.63;2.60;;;;;;;24.70;58.49;100948.78;10501586;28;20040;-76
2022/07/25 11:09:33;;;;;;;6.97;3.40;;;;;;;24.58;60.08;100940.84;10501185;28;20032;-76
2022/07/25 11:14:36;;;;;;;5.90;3.08;;;;;;;24.76;59.63;100958.69;10482775;28;20052;-76
2022/07/25 11:19:36;;;;;;;6.00;2.65;;;;;;;24.45;58.21;100947.06;10483285;28;20124;-76
2022/07/25 11:24:41;;;;;;;4.22;2.88;;;;;;;24.75;55.35;100946.78;10466890;28;20139;-76
2022/07/25 11:29:42;;;;;;;7.22;2.92;;;;;;;24.67;53.26;100964.03;10501436;28;20031;-77
2022/07/25 11:34:51;;;;;;;6.75;3.20;;;;;;;26.77;47.53;100944.66;10482509;28;20032;-76
2022/07/25 11:39:51;;;;;;;2.03;1.67;;;;;;;25.94;48.73;100947.09;10499729;28;20094;-76
2022/07/25 11:44:53;;;;;;;12.45;3.15;;;;;;;26.68;46.64;100936.22;10498134;28;20090;-76
2022/07/25 11:49:57;;;;;;;5.32;2.50;;;;;;;26.63;47.00;100953.78;10497984;28;20036;-76
2022/07/25 11:55:07;;;;;;;4.32;2.45;;;;;;;27.42;45.84;100960.41;10482112;28;20029;-76
2022/07/25 12:00:16;;;;;;;4.50;3.35;;;;;;;27.23;45.94;100953.00;10498455;28;20048;-76
2022/07/25 12:05:19;;;;;;;5.63;2.70;;;;;;;28.92;42.91;100947.16;10499430;28;20032;-76
2022/07/25 12:10:23;;;;;;;2.80;1.75;;;;;;;28.99;39.61;100943.91;10497660;28;20395;-76
2022/07/25 12:15:28;;;;;;;7.15;1.70;;;;;;;29.13;39.66;100950.25;10498079;28;20021;-76
2022/07/25 12:20:30;;;;;;;10.60;3.33;;;;;;;29.43;39.80;100948.53;10481271;28;20032;-76
2022/07/25 12:25:32;;;;;;;10.77;3.17;;;;;;;28.89;41.34;100950.56;10498342;28;20476;-76
2022/07/25 12:30:32;;;;;;;11.35;2.17;;;;;;;29.10;40.69;100955.63;10497685;28;20033;-76
2022/07/25 12:35:36;;;;;;;4.25;2.70;;;;;;;27.99;43.14;100964.50;10496646;28;20028;-76
2022/07/25 12:40:36;;;;;;;2.70;2.28;;;;;;;28.92;40.46;100958.31;10496852;28;20035;-76
2022/07/25 12:45:37;;;;;;;8.30;3.13;;;;;;;29.11;40.23;100957.28;10496372;28;20498;-76
2022/07/25 12:50:37;;;;;;;2.97;2.53;;;;;;;28.61;41.36;100968.59;10496546;28;20068;-77
2022/07/25 12:55:38;;;;;;;14.32;3.25;;;;;;;27.74;42.33;100976.16;10496482;28;20131;-76
2022/07/25 13:00:39;;;;;;;9.32;2.83;;;;;;;27.62;43.49;100975.84;10496581;28;20127;-76
2022/07/25 13:05:39;;;;;;;6.05;2.17;;;;;;;27.73;42.08;100968.94;10497347;28;20483;-76
2022/07/25 13:10:40;;;;;;;10.05;1.70;;;;;;;27.57;41.71;100968.47;10496200;28;20115;-76
2022/07/25 13:15:41;;;;;;;4.32;1.95;;;;;;;28.30;42.00;100958.19;10495613;28;20099;-76
2022/07/25 13:20:41;;;;;;;9.02;2.33;;;;;;;29.25;40.64;100969.13;10495661;28;20428;-76
2022/07/25 13:25:42;;;;;;;6.05;3.03;;;;;;;29.56;39.01;100955.13;10495992;28;20028;-76
2022/07/25 13:30:42;;;;;;;7.43;2.97;;;;;;;29.02;40.83;100962.81;10497340;28;20036;-76
2022/07/25 13:35:43;;;;;;;5.32;2.08;;;;;;;29.16;40.10;100973.84;10495717;28;20494;-76
2022/07/25 13:40:43;;;;;;;7.90;2.08;;;;;;;29.07;39.39;100985.00;10496650;28;20037;-76
2022/07/25 13:45:44;;;;;;;4.68;1.85;;;;;;;28.90;40.21;100984.84;10498480;28;20029;-76
2022/07/25 13:50:45;;;;;;;4.13;2.20;;;;;;;29.01;38.15;100988.25;10486312;28;20070;-76
2022/07/25 13:55:46;;;;;;;3.70;1.48;;;;;;;28.27;40.44;100984.72;10502655;28;20066;-76
2022/07/25 14:00:46;;;;;;;3.40;1.80;;;;;;;27.92;41.27;100971.59;10502402;28;20049;-76
2022/07/25 14:05:47;;;;;;;5.00;1.70;;;;;;;27.44;42.05;100989.59;10502428;28;20086;-75
2022/07/25 14:10:48;;;;;;;2.92;1.83;;;;;;;27.73;43.05;100988.44;10503666;28;20035;-76
2022/07/25 14:15:49;;;;;;;3.33;2.20;;;;;;;28.16;43.29;101004.75;10485115;28;20077;-76
2022/07/25 14:20:50;;;;;;;1.73;1.55;;;;;;;27.71;43.31;100993.47;10502378;28;20115;-76
2022/07/25 14:25:51;;;;;;;9.02;2.42;;;;;;;27.72;42.54;101003.47;10485385;28;20469;-76
2022/07/25 14:30:51;;;;;;;3.17;1.67;;;;;;;27.52;43.13;101001.94;10505831;28;20115;-76
2022/07/25 14:35:52;;;;;;;6.32;1.35;;;;;;;26.97;43.18;100999.88;10468211;28;20032;-76
2022/07/25 14:40:52;;;;;;;9.85;1.95;;;;;;;26.69;43.97;101000.94;10502431;28;20090;-76
2022/07/25 14:45:53;;;;;;;2.47;2.28;;;;;;;26.16;46.38;101013.09;10500723;28;20133;-76
2022/07/25 14:50:53;;;;;;;4.25;2.75;;;;;;;25.68;47.50;101004.81;10502031;28;20490;-75
2022/07/25 14:55:54;;;;;;;2.13;1.92;;;;;;;25.24;48.85;101015.06;10501747;28;20024;-76
2022/07/25 15:00:54;;;;;;;14.73;2.42;;;;;;;25.06;49.53;101005.50;10501582;28;20136;-76
2022/07/25 15:05:55;;;;;;;11.23;2.58;;;;;;;25.36;48.39;101022.13;10500373;28;20041;-76
2022/07/25 15:10:55;;;;;;;5.07;1.83;;;;;;;24.73;49.85;101014.66;10500328;28;20032;-76
2022/07/25 15:15:56;;;;;;;2.50;1.95;;;;;;;24.50;51.78;101027.28;10500524;28;20034;-75
2022/07/25 15:20:57;;;;;;;7.50;2.42;;;;;;;24.66;52.99;101014.97;10500722;28;20025;-75
2022/07/25 15:25:57;;;;;;;6.93;3.35;;;;;;;25.12;52.36;101020.16;10500481;28;20113;-75
2022/07/25 15:30:58;;;;;;;5.82;3.33;;;;;;;25.43;52.66;101025.38;10499673;28;20086;-75
2022/07/25 15:35:59;;;;;;;5.90;2.33;;;;;;;25.15;52.55;101027.06;10482779;28;20040;-76
2022/07/25 15:40:59;;;;;;;11.68;3.00;;;;;;;24.98;54.65;101039.38;10499990;28;20035;-75
2022/07/25 15:46:00;;;;;;;2.42;1.83;;;;;;;24.58;55.76;101035.81;10498204;28;20403;-76
2022/07/25 15:51:00;;;;;;;6.43;1.80;;;;;;;24.48;56.51;101033.13;10498974;28;20036;-76
2022/07/25 15:56:01;;;;;;;15.43;3.35;;;;;;;24.29;57.06;101032.94;10499327;28;20151;-75
2022/07/25 16:01:01;;;;;;;12.82;3.42;;;;;;;24.01;59.60;101048.31;10498284;28;20064;-76
2022/07/25 16:06:03;;;;;;;8.02;3.05;;;;;;;23.89;60.97;101042.28;10497778;28;20059;-75
2022/07/25 16:11:06;;;;;;;6.75;2.28;;;;;;;23.47;60.66;101053.72;10496862;28;20058;-75
2022/07/25 16:16:07;;;;;;;8.10;3.08;;;;;;;23.01;65.13;101051.06;10498223;28;20029;-75
2022/07/25 16:21:09;;;;;;;14.55;3.88;;;;;;;22.80;65.92;101039.97;10497067;28;20193;-76
2022/07/25 16:26:10;;;;;;;9.52;2.33;;;;;;;22.67;66.32;101049.63;10497286;28;20040;-75
2022/07/25 16:31:11;;;;;;;8.35;4.35;;;;;;;22.61;66.29;101059.00;10480762;28;20040;-76
2022/07/25 16:36:11;;;;;;;6.97;3.78;;;;;;;22.55;67.66;101056.50;10498673;28;20032;-77
2022/07/25 16:41:13;;;;;;;14.55;4.07;;;;;;;22.26;68.12;101063.34;10498696;28;20509;-76
2022/07/25 16:46:14;;;;;;;10.25;4.20;;;;;;;21.97;68.30;101059.34;10496389;28;20039;-75
2022/07/25 16:51:14;;;;;;;5.57;2.70;;;;;;;21.91;70.34;101066.78;10497047;28;20124;-76
2022/07/25 16:56:15;;;;;;;9.02;3.70;;;;;;;21.82;71.29;101073.88;10479696;28;20516;-75
2022/07/25 17:01:16;;;;;;;7.97;3.45;;;;;;;21.78;71.68;101067.25;10465730;28;20076;-75
2022/07/25 17:06:18;;;;;;;6.70;2.47;;;;;;;21.73;70.89;101067.22;10498569;28;20472;-76
2022/07/25 17:11:21;;;;;;;5.68;2.97;;;;;;;21.70;71.53;101068.63;10497473;28;20086;-76
2022/07/25 17:16:21;;;;;;;11.27;3.03;;;;;;;21.68;73.71;101072.72;10495920;28;20361;-76
2022/07/25 17:21:22;;;;;;;20.48;3.35;;;;;;;21.55;73.44;101080.38;10482366;28;20033;-75
2022/07/25 17:26:23;;;;;;;3.92;1.65;;;;;;;21.62;73.74;101076.56;10487802;28;20033;-75
2022/07/25 17:31:23;;;;;;;16.35;3.40;;;;;;;21.61;71.86;101081.25;10491576;28;20492;-75
2022/07/25 17:36:24;;;;;;;12.13;4.13;;;;;;;21.72;72.22;101082.13;10471033;28;20029;-76
2022/07/25 17:41:25;;;;;;;12.23;2.97;;;;;;;21.66;71.91;101089.53;10487107;28;20032;-75
2022/07/25 17:46:25;;;;;;;11.98;3.50;;;;;;;21.66;71.46;101091.44;10503059;28;20028;-75
2022/07/25 17:51:27;;;;;;;7.00;3.40;;;;;;;21.43;76.00;101098.19;10503277;28;20032;-76
2022/07/25 17:56:27;;;;;;;7.72;3.58;;;;;;;21.34;76.12;101092.31;10503738;28;20469;-76
2022/07/25 18:01:34;;;;;;;10.75;4.15;;;;;;;21.35;74.23;101097.59;10504635;28;20143;-76
2022/07/25 18:06:35;;;;;;;5.03;2.20;;;;;;;21.21;77.49;101085.34;10503041;28;20028;-75
2022/07/25 18:11:36;;;;;;;10.88;3.45;;;;;;;21.06;76.78;101110.03;10468758;28;20551;-75
2022/07/25 18:16:40;;;;;;;6.25;2.28;;;;;;;21.04;77.63;101107.53;10503464;28;20035;-75
2022/07/25 18:21:40;;;;;;;7.40;3.72;;;;;;;21.21;73.88;101103.78;10503438;28;20033;-76
2022/07/25 18:26:41;;;;;;;9.77;2.90;;;;;;;21.14;78.93;101112.28;10485653;28;20387;-75
2022/07/25 18:31:42;;;;;;;25.85;3.55;;;;;;;21.08;78.21;101116.09;10502367;28;20126;-76
2022/07/25 18:36:43;;;;;;;12.27;3.25;;;;;;;20.99;81.40;101118.47;10485845;28;20029;-76
2022/07/25 18:41:44;;;;;;;6.82;3.95;;;;;;;21.12;81.04;101108.94;10484717;28;20040;-76
2022/07/25 18:46:45;;;;;;;4.65;3.00;;;;;;;21.23;79.53;101120.91;10500617;28;20433;-75
2022/07/25 18:51:45;;;;;;;8.65;3.25;;;;;;;21.10;80.58;101117.47;10501000;28;20041;-76
2022/07/25 18:56:46;;;;;;;13.38;3.40;;;;;;;21.01;77.58;101121.81;10467652;28;20106;-75
2022/07/25 19:01:48;;;;;;;11.85;3.83;;;;;;;20.78;79.28;101124.91;10485007;28;20052;-75
2022/07/25 19:06:49;;;;;;;10.57;4.00;;;;;;;20.49;81.42;101132.56;10501065;28;20032;-76
2022/07/25 19:11:49;;;;;;;8.07;4.53;;;;;;;20.33;82.34;101129.63;10501113;28;20391;-75
2022/07/25 19:16:51;;;;;;;8.95;2.97;;;;;;;20.17;84.70;101125.03;10500828;28;20040;-75
2022/07/25 19:21:53;;;;;;;14.07;6.53;;;;;;;19.98;86.17;101143.75;10483225;28;20124;-76
2022/07/25 19:26:54;;;;;;;21.38;5.07;;;;;;;19.94;87.90;101134.31;10499224;28;20494;-75
2022/07/25 19:31:56;;;;;;;16.58;4.63;;;;;;;20.02;86.67;101141.31;10501978;28;20127;-76
2022/07/25 19:36:58;;;;;;;28.00;5.70;;;;;;;20.08;86.56;101154.03;10502424;28;20032;-75
2022/07/25 19:41:58;;;;;;;11.05;3.97;;;;;;;20.08;87.57;101154.88;10499718;28;20032;-76
2022/07/25 19:46:59;;;;;;;9.23;2.97;;;;;;;20.00;86.70;101165.47;10498214;28;20036;-76
2022/07/25 19:52:01;;;;;;;9.82;3.63;;;;;;;19.88;86.93;101163.69;10498948;28;20039;-75
2022/07/25 19:57:02;;;;;;;15.43;5.40;;;;;;;19.89;87.76;101161.75;10498379;28;20016;-76
2022/07/25 20:02:03;;;;;;;16.23;3.90;;;;;;;19.95;88.16;101180.81;10499362;28;20076;-76
2022/07/25 20:07:04;;;;;;;12.75;4.70;;;;;;;19.87;88.55;101177.66;10465435;28;20033;-76
2022/07/25 20:12:05;;;;;;;7.03;4.65;;;;;;;19.85;89.57;101180.66;10481897;28;20047;-76
2022/07/25 20:17:07;;;;;;;20.90;4.90;;;;;;;19.98;86.92;101188.56;10480780;28;20036;-75
2022/07/25 20:22:09;;;;;;;22.42;5.20;;;;;;;20.06;90.30;101184.53;10499049;28;20020;-76
2022/07/25 20:27:09;;;;;;;20.20;4.40;;;;;;;20.13;88.76;101178.84;10480755;28;20032;-76
2022/07/25 20:32:10;;;;;;;16.88;3.40;;;;;;;20.10;90.08;101171.09;10484140;28;20067;-76
2022/07/25 20:37:18;;;;;;;9.68;3.90;;;;;;;20.14;87.71;101181.34;10498687;28;20048;-75
2022/07/25 20:42:18;;;;;;;22.38;4.88;;;;;;;20.12;90.26;101177.19;10498688;28;20041;-76
2022/07/25 20:47:24;;;;;;;12.55;4.47;;;;;;;20.11;90.57;101187.34;10479958;28;20034;-75
2022/07/25 20:52:26;;;;;;;14.93;3.97;;;;;;;20.16;90.67;101194.81;10496753;28;20041;-76
2022/07/25 20:57:27;;;;;;;11.88;4.55;;;;;;;20.14;90.60;101197.84;10496445;28;20036;-76
2022/07/25 21:02:27;;;;;;;11.95;4.72;;;;;;;20.18;89.71;101204.50;10498092;28;20056;-75
2022/07/25 21:07:28;;;;;;;16.15;4.43;;;;;;;20.25;88.67;101193.31;10500211;28;20029;-76
2022/07/25 21:12:28;;;;;;;15.80;4.43;;;;;;;20.28;88.00;101194.72;10463351;28;20420;-76
2022/07/25 21:17:30;;;;;;;15.30;4.70;;;;;;;20.23;92.64;101198.25;10497154;28;20037;-76
2022/07/25 21:22:31;;;;;;;8.95;3.40;;;;;;;20.29;90.90;101201.88;10497402;28;20464;-76
2022/07/25 21:27:32;;;;;;;11.25;4.80;;;;;;;20.33;90.54;101205.81;10496248;28;20032;-76
2022/07/25 21:32:34;;;;;;;11.13;4.45;;;;;;;20.35;90.91;101203.59;10497597;28;20028;-75
2022/07/25 21:37:37;;;;;;;6.60;3.42;;;;;;;20.40;90.23;101206.44;10497722;28;20041;-75
2022/07/25 21:42:38;;;;;;;12.02;4.43;;;;;;;20.47;89.25;101211.75;10491415;28;20044;-75
2022/07/25 21:47:38;;;;;;;16.08;4.93;;;;;;;20.43;90.99;101205.94;10496644;28;20029;-76
2022/07/25 21:52:39;;;;;;;11.52;4.63;;;;;;;20.48;90.00;101218.91;10478980;28;20093;-76
2022/07/25 21:57:39;;;;;;;17.85;5.20;;;;;;;20.51;89.38;101216.50;10478398;28;20072;-75
2022/07/25 22:02:42;;;;;;;12.55;4.53;;;;;;;20.52;89.30;101209.94;10478804;28;20056;-75
2022/07/25 22:07:45;;;;;;;19.58;5.75;;;;;;;20.50;91.52;101212.06;10482138;28;20025;-75
2022/07/25 22:12:46;;;;;;;17.15;4.75;;;;;;;20.52;91.72;101217.34;10485675;28;20037;-75
2022/07/25 22:17:47;;;;;;;15.18;3.50;;;;;;;20.57;87.89;101217.41;10485498;28;20060;-76
2022/07/25 22:22:47;;;;;;;11.27;4.43;;;;;;;20.59;88.54;101223.47;10502453;28;20024;-76
2022/07/25 22:27:48;;;;;;;16.88;4.60;;;;;;;20.59;88.13;101227.06;10484275;28;20032;-75
2022/07/25 22:32:49;;;;;;;16.35;4.40;;;;;;;20.60;87.63;101223.22;10485228;28;20055;-75
2022/07/25 22:37:51;;;;;;;8.32;4.18;;;;;;;20.60;88.63;101222.38;10503522;28;20437;-75
2022/07/25 22:43:01;;;;;;;8.57;3.78;;;;;;;20.61;86.41;101233.16;10484998;28;20102;-76
2022/07/25 22:48:04;;;;;;;13.60;4.30;;;;;;;20.60;86.64;101228.72;10502791;28;20464;-76
2022/07/25 22:53:15;;;;;;;8.15;4.05;;;;;;;20.60;85.94;101234.22;10466911;28;20105;-76
2022/07/25 22:58:19;;;;;;;10.15;4.00;;;;;;;20.63;86.96;101232.88;10480796;28;20344;-75
2022/07/25 23:03:21;;;;;;;6.43;3.25;;;;;;;20.67;85.66;101236.78;10484459;28;20051;-75
2022/07/25 23:08:45;;;;;;;;;;;;;;;;;;;;;